Terminal Aerodrome Forecast
Issued by NWS

Home | Current Version | Previous Version | Text Only | Print | Product List | Glossary On
Versions: 1 2 3 4 5 6 7 8 9 10 11 12 13 14 15 16 17 18 19 20 21
302
FTUS46 KMFR 211344 AAB
TAFLMT
TAF AMD
KLMT 211344Z 2114/2212 20023G33KT P6SM -RA SCT020 SCT030 OVC040
     FM211500 22024G35KT 6SM -SHRA BR SCT020 BKN030 OVC040
     FM211700 22020G30KT 6SM -SHRASN BR BKN040
     FM212100 26016G25KT 6SM -SHRA BR BKN035
     FM220100 25006KT P6SM VCSH BKN040=

USA.gov is the U.S. government's official web portal to all federal, state and local government web resources and services.